Time;durP1;ratioP1;P1;durP2;ratioP2;P2;SDS_P1;SDS_P2;PMS_P1;PMS_P2;Temp;Humidity;BMP_temperature;BMP_pressure;BME280_temperature;BME280_humidity;BME280_pressure;Samples;Min_cycle;Max_cycle;Signal;HPM_P1;HPM_P2
2022/12/23 00:01:40;;;;;;;;;;;;;;;11.06;71.36;100227.91;5012978;28;19924;-76
2022/12/23 00:04:06;;;;;;;;;;;;;;;11.05;71.42;100235.22;5013724;28;20285;-76
2022/12/23 00:06:31;;;;;;;;;;;;;;;11.06;71.36;100238.72;5012767;28;19921;-75
2022/12/23 00:08:59;;;;;;;;;;;;;;;11.05;71.26;100242.50;5013029;28;20376;-76
2022/12/23 00:11:25;;;;;;;;;;;;;;;11.06;71.51;100244.13;5012860;28;19917;-75
2022/12/23 00:16:35;;;;;;;;;;;;;;;11.07;71.55;100244.97;5014035;28;19924;-76
2022/12/23 00:19:00;;;;;;;;;;;;;;;11.07;71.24;100250.38;5012604;28;19917;-80
2022/12/23 00:21:25;;;;;;;;;;;;;;;11.07;71.39;100255.78;5012598;28;19913;-75
2022/12/23 00:23:51;;;;;;;;;;;;;;;11.08;71.24;100247.38;5013675;28;19917;-77
2022/12/23 00:26:18;;;;;;;;;;;;;;;11.08;71.40;100260.09;5013099;28;20367;-76
2022/12/23 00:28:43;;;;;;;;;;;;;;;11.09;71.30;100254.44;5012490;28;19917;-75
2022/12/23 00:31:09;;;;;;;;;;;;;;;11.09;71.37;100261.72;5013657;28;19913;-77
2022/12/23 00:33:36;;;;;;;;;;;;;;;11.10;71.30;100255.25;5013858;28;19909;-76
2022/12/23 00:36:01;;;;;;;;;;;;;;;11.10;71.44;100274.16;5012555;28;19909;-75
2022/12/23 00:43:56;;;;;;;;;;;;;;;11.10;71.27;100283.09;5014232;28;19967;-77
2022/12/23 00:46:21;;;;;;;;;;;;;;;11.10;71.32;100288.50;5013946;28;19995;-75
2022/12/23 00:51:30;;;;;;;;;;;;;;;11.10;71.38;100287.69;5016199;28;20300;-77
2022/12/23 00:53:55;;;;;;;;;;;;;;;11.09;71.34;100288.75;5016565;28;19909;-76
2022/12/23 00:56:21;;;;;;;;;;;;;;;11.10;71.29;100288.50;5017137;28;20258;-76
2022/12/23 00:58:46;;;;;;;;;;;;;;;11.11;71.30;100283.91;4999536;28;19913;-76
2022/12/23 01:06:39;;;;;;;;;;;;;;;11.11;71.32;100294.72;5016424;28;19935;-75
2022/12/23 01:09:04;;;;;;;;;;;;;;;11.11;71.46;100287.41;4999270;28;20412;-76
2022/12/23 01:11:29;;;;;;;;;;;;;;;11.11;71.34;100292.81;5015154;28;19913;-76
2022/12/23 01:13:54;;;;;;;;;;;;;;;11.11;71.36;100295.53;5015648;28;19909;-76
2022/12/23 01:16:20;;;;;;;;;;;;;;;11.12;71.41;100296.34;5015847;28;19952;-76
2022/12/23 01:18:45;;;;;;;;;;;;;;;11.12;71.41;100293.66;5017146;28;20292;-76
2022/12/23 01:21:10;;;;;;;;;;;;;;;11.12;71.33;100293.66;5015686;28;19920;-77
2022/12/23 01:23:36;;;;;;;;;;;;;;;11.13;71.33;100296.09;5015592;28;20315;-76
2022/12/23 01:26:02;;;;;;;;;;;;;;;11.13;71.35;100296.09;5016654;28;19952;-76
2022/12/23 01:28:29;;;;;;;;;;;;;;;11.13;71.39;100304.19;5016305;28;20325;-74
2022/12/23 01:30:54;;;;;;;;;;;;;;;11.13;71.27;100314.19;5015230;28;19952;-75
2022/12/23 01:33:20;;;;;;;;;;;;;;;11.13;71.11;100308.78;5016124;28;19953;-75
2022/12/23 01:35:45;;;;;;;;;;;;;;;11.14;71.40;100311.25;5015254;28;19960;-75
2022/12/23 01:38:10;;;;;;;;;;;;;;;11.14;71.34;100318.53;5016077;28;20461;-76
2022/12/23 01:40:36;;;;;;;;;;;;;;;11.14;71.12;100310.44;5016432;28;20007;-75
2022/12/23 01:43:01;;;;;;;;;;;;;;;11.14;71.32;100315.84;5014916;28;19952;-75
2022/12/23 01:45:28;;;;;;;;;;;;;;;11.15;71.27;100312.88;4998062;28;19924;-74
2022/12/23 01:48:14;;;;;;;;;;;;;;;11.14;71.19;100321.25;5016281;28;20004;-76
2022/12/23 01:50:42;;;;;;;;;;;;;;;11.14;71.46;100324.75;5016037;28;19933;-75
2022/12/23 01:53:14;;;;;;;;;;;;;;;11.14;71.31;100327.47;5015019;28;19909;-75
2022/12/23 01:55:45;;;;;;;;;;;;;;;11.14;71.19;100329.34;5014867;28;20052;-76
2022/12/23 01:58:12;;;;;;;;;;;;;;;11.14;71.38;100337.47;5015803;28;19909;-75
2022/12/23 02:03:41;;;;;;;;;;;;;;;11.14;71.31;100340.16;5016162;28;19967;-75
2022/12/23 02:11:40;;;;;;;;;;;;;;;11.14;71.25;100340.16;5015689;28;20368;-76
2022/12/23 02:17:07;;;;;;;;;;;;;;;11.15;71.39;100344.50;5015473;28;19968;-75
2022/12/23 02:19:51;;;;;;;;;;;;;;;11.14;71.18;100349.09;5015909;28;19914;-74
2022/12/23 02:22:48;;;;;;;;;;;;;;;11.14;71.44;100354.50;5015535;28;19909;-75
2022/12/23 02:25:19;;;;;;;;;;;;;;;11.14;71.46;100351.78;4981784;28;19916;-75
2022/12/23 02:27:55;;;;;;;;;;;;;;;11.15;71.24;100349.91;5014235;28;19909;-75
2022/12/23 02:30:20;;;;;;;;;;;;;;;11.15;71.41;100364.22;5014766;28;19960;-75
2022/12/23 02:32:46;;;;;;;;;;;;;;;11.15;71.34;100366.94;5015324;28;20311;-75
2022/12/23 02:35:13;;;;;;;;;;;;;;;11.16;71.33;100382.09;5014880;28;20364;-75
2022/12/23 02:37:41;;;;;;;;;;;;;;;11.15;71.31;100393.97;5014267;28;19916;-75
2022/12/23 02:40:21;;;;;;;;;;;;;;;11.16;71.44;100392.06;5014002;28;19910;-75
2022/12/23 02:42:51;;;;;;;;;;;;;;;11.16;71.45;100394.78;5015332;28;19909;-75
2022/12/23 02:45:26;;;;;;;;;;;;;;;11.16;71.36;100401.03;5013445;28;19913;-74
2022/12/23 02:48:11;;;;;;;;;;;;;;;11.16;71.35;100406.44;5015736;28;19920;-75
2022/12/23 02:50:39;;;;;;;;;;;;;;;11.16;71.40;100409.13;5014894;28;19909;-75
2022/12/23 02:53:13;;;;;;;;;;;;;;;11.17;71.35;100408.03;5015041;28;20357;-75
2022/12/23 02:55:40;;;;;;;;;;;;;;;11.16;71.49;100398.31;5013645;28;20367;-76
2022/12/23 02:58:09;;;;;;;;;;;;;;;11.18;71.45;100403.44;5013630;28;19917;-75
2022/12/23 03:00:35;;;;;;;;;;;;;;;11.17;71.24;100399.94;5014121;28;19964;-76
2022/12/23 03:03:00;;;;;;;;;;;;;;;11.17;71.09;100416.16;5014903;28;19921;-75
2022/12/23 03:05:55;;;;;;;;;;;;;;;11.18;71.21;100420.47;4997536;28;19913;-75
2022/12/23 03:08:33;;;;;;;;;;;;;;;11.18;71.23;100419.66;5006508;28;19910;-75
2022/12/23 03:11:12;;;;;;;;;;;;;;;11.19;71.33;100415.91;5013385;28;20331;-75
2022/12/23 03:13:56;;;;;;;;;;;;;;;11.19;71.32;100407.81;5014858;28;19946;-75
2022/12/23 03:16:23;;;;;;;;;;;;;;;11.18;71.30;100420.47;5014300;28;19934;-77
2022/12/23 03:19:01;;;;;;;;;;;;;;;11.18;71.33;100412.38;5014622;28;19948;-75
2022/12/23 03:21:26;;;;;;;;;;;;;;;11.19;71.41;100413.22;5013513;28;20308;-75
2022/12/23 03:23:55;;;;;;;;;;;;;;;11.19;71.18;100411.31;5013248;28;19913;-75
2022/12/23 03:26:22;;;;;;;;;;;;;;;11.19;71.30;100407.81;5014385;28;20056;-75
2022/12/23 03:28:47;;;;;;;;;;;;;;;11.19;71.38;100405.09;5014440;28;20345;-75
2022/12/23 03:31:16;;;;;;;;;;;;;;;11.19;71.26;100397.81;5013060;28;19909;-75
2022/12/23 03:33:43;;;;;;;;;;;;;;;11.18;71.35;100403.44;5014052;28;19909;-75
2022/12/23 03:36:11;;;;;;;;;;;;;;;11.18;71.32;100406.16;5013242;28;20004;-75
2022/12/23 03:38:39;;;;;;;;;;;;;;;11.18;71.25;100406.16;5012903;28;20282;-75
2022/12/23 03:41:07;;;;;;;;;;;;;;;11.19;71.21;100405.09;5014238;28;19910;-75
2022/12/23 03:43:35;;;;;;;;;;;;;;;11.19;71.30;100403.22;5012968;28;19913;-75
2022/12/23 03:46:16;;;;;;;;;;;;;;;11.19;71.26;100405.91;5013050;28;19913;-75
2022/12/23 03:48:53;;;;;;;;;;;;;;;11.18;71.21;100412.38;5014164;28;19909;-75
2022/12/23 03:51:24;;;;;;;;;;;;;;;11.19;71.33;100411.31;5014151;28;19909;-75
2022/12/23 03:54:16;;;;;;;;;;;;;;;11.20;71.31;100410.25;5012870;28;19909;-75
2022/12/23 03:56:45;;;;;;;;;;;;;;;11.20;71.25;100417.53;5012141;28;19937;-76
2022/12/23 03:59:22;;;;;;;;;;;;;;;11.20;71.25;100417.53;5014425;28;19916;-75
2022/12/23 04:01:47;;;;;;;;;;;;;;;11.19;71.40;100422.13;5012825;28;19909;-75
2022/12/23 04:04:15;;;;;;;;;;;;;;;11.20;71.29;100422.94;5012809;28;19909;-75
2022/12/23 04:07:04;;;;;;;;;;;;;;;11.20;71.24;100421.06;5012913;28;20252;-78
2022/12/23 04:09:29;;;;;;;;;;;;;;;11.19;71.12;100422.13;4994742;28;19940;-75
2022/12/23 04:11:56;;;;;;;;;;;;;;;11.20;71.17;100423.75;5012724;28;20266;-75
2022/12/23 04:14:21;;;;;;;;;;;;;;;11.19;71.18;100422.13;5013742;28;19913;-75
2022/12/23 04:16:48;;;;;;;;;;;;;;;11.20;71.20;100431.88;5014160;28;20013;-75
2022/12/23 04:19:14;;;;;;;;;;;;;;;11.21;71.31;100438.09;5013922;28;19952;-75
2022/12/23 04:21:39;;;;;;;;;;;;;;;11.21;71.15;100447.03;5012668;28;20019;-76
2022/12/23 04:24:04;;;;;;;;;;;;;;;11.21;71.20;100448.91;5016349;28;19914;-75
2022/12/23 04:26:30;;;;;;;;;;;;;;;11.20;71.21;100448.09;5017236;28;19910;-76
2022/12/23 04:28:55;;;;;;;;;;;;;;;11.21;71.35;100457.00;5000027;28;20257;-75
2022/12/23 04:31:20;;;;;;;;;;;;;;;11.21;71.25;100462.41;5016416;28;19937;-76
2022/12/23 04:33:45;;;;;;;;;;;;;;;11.21;71.03;100457.84;5017931;28;19909;-76
2022/12/23 04:36:11;;;;;;;;;;;;;;;11.19;71.13;100449.16;5016541;28;19945;-76
2022/12/23 04:38:36;;;;;;;;;;;;;;;11.20;71.17;100448.09;5016259;28;20003;-76
2022/12/23 04:41:01;;;;;;;;;;;;;;;11.20;71.30;100441.88;4999788;28;20097;-76
2022/12/23 04:43:26;;;;;;;;;;;;;;;11.20;71.14;100450.78;4999747;28;19913;-76
2022/12/23 04:45:52;;;;;;;;;;;;;;;11.20;71.06;100445.38;5016094;28;19917;-76
2022/12/23 04:48:17;;;;;;;;;;;;;;;11.21;71.32;100440.78;5016410;28;19909;-75
2022/12/23 04:50:42;;;;;;;;;;;;;;;11.19;71.19;100422.13;5017540;28;19921;-76
2022/12/23 04:53:08;;;;;;;;;;;;;;;11.20;71.21;100423.75;5017560;28;19913;-76
2022/12/23 04:55:33;;;;;;;;;;;;;;;11.19;71.06;100427.53;5016053;28;20356;-76
2022/12/23 04:57:58;;;;;;;;;;;;;;;11.18;71.15;100415.06;5016638;28;19913;-76
2022/12/23 05:00:23;;;;;;;;;;;;;;;11.18;71.03;100409.66;4999557;28;19917;-76
2022/12/23 05:02:48;;;;;;;;;;;;;;;11.19;71.12;100422.13;5016125;28;19916;-76
2022/12/23 05:05:14;;;;;;;;;;;;;;;11.19;71.10;100421.31;4999239;28;19914;-77
2022/12/23 05:07:39;;;;;;;;;;;;;;;11.19;71.15;100426.72;5016739;28;20027;-76
2022/12/23 05:10:04;;;;;;;;;;;;;;;11.20;71.09;100428.34;5015673;28;20265;-76
2022/12/23 05:12:30;;;;;;;;;;;;;;;11.19;71.12;100435.66;5016235;28;20253;-76
2022/12/23 05:14:55;;;;;;;;;;;;;;;11.20;71.12;100437.28;5016629;28;19992;-76
2022/12/23 05:17:21;;;;;;;;;;;;;;;11.19;71.03;100448.34;4999334;28;19920;-77
2022/12/23 05:19:46;;;;;;;;;;;;;;;11.20;71.21;100455.38;5015628;28;20312;-77
2022/12/23 05:22:11;;;;;;;;;;;;;;;11.19;70.98;100459.97;5016729;28;19914;-76
2022/12/23 05:24:36;;;;;;;;;;;;;;;11.19;70.96;100461.88;5016688;28;19992;-76
2022/12/23 05:27:02;;;;;;;;;;;;;;;11.19;71.04;100472.69;5016744;28;19946;-75
2022/12/23 05:29:27;;;;;;;;;;;;;;;11.19;71.04;100481.63;4999090;28;20435;-75
2022/12/23 05:31:52;;;;;;;;;;;;;;;11.18;71.14;100481.84;5016679;28;20004;-76
2022/12/23 05:34:18;;;;;;;;;;;;;;;11.19;71.07;100484.31;5014185;28;19919;-76
2022/12/23 05:36:43;;;;;;;;;;;;;;;11.19;71.14;100483.50;5016477;28;19909;-75
2022/12/23 05:39:08;;;;;;;;;;;;;;;11.17;71.04;100486.44;5015308;28;19924;-75
2022/12/23 05:41:33;;;;;;;;;;;;;;;11.18;71.05;100481.84;5016377;28;19909;-75
2022/12/23 05:43:59;;;;;;;;;;;;;;;11.18;71.13;100488.06;5014991;28;19909;-75
2022/12/23 05:46:24;;;;;;;;;;;;;;;11.19;71.18;100475.38;5015306;28;20411;-76
2022/12/23 05:48:49;;;;;;;;;;;;;;;11.18;70.96;100471.84;5015022;28;19913;-75
2022/12/23 05:51:14;;;;;;;;;;;;;;;11.18;71.05;100471.84;5014957;28;19913;-76
2022/12/23 05:53:40;;;;;;;;;;;;;;;11.18;71.14;100465.63;5014946;28;19913;-76
2022/12/23 05:56:05;;;;;;;;;;;;;;;11.19;71.01;100454.56;5014918;28;19909;-76
2022/12/23 05:58:30;;;;;;;;;;;;;;;11.18;70.95;100442.09;5016497;28;19920;-76
2022/12/23 06:00:56;;;;;;;;;;;;;;;11.18;71.13;100444.00;5014915;28;19909;-77
2022/12/23 06:03:21;;;;;;;;;;;;;;;11.18;71.08;100439.41;5015974;28;19913;-76
2022/12/23 06:05:50;;;;;;;;;;;;;;;11.18;70.95;100431.28;5015379;28;19944;-76
2022/12/23 06:08:15;;;;;;;;;;;;;;;11.18;70.89;100423.19;4998991;28;20280;-76
2022/12/23 06:10:41;;;;;;;;;;;;;;;11.18;70.83;100423.19;5014695;28;20423;-76
2022/12/23 06:13:06;;;;;;;;;;;;;;;11.18;71.04;100425.88;5015742;28;19913;-76
2022/12/23 06:15:31;;;;;;;;;;;;;;;11.18;71.08;100422.38;5014790;28;19960;-75
2022/12/23 06:17:56;;;;;;;;;;;;;;;11.18;71.12;100419.66;5014522;28;19913;-76
2022/12/23 06:20:22;;;;;;;;;;;;;;;11.18;71.02;100423.19;5015713;28;19918;-76
2022/12/23 06:22:47;;;;;;;;;;;;;;;11.18;70.81;100428.59;5015588;28;19932;-76
2022/12/23 06:25:12;;;;;;;;;;;;;;;11.17;71.05;100432.38;5014393;28;19921;-76
2022/12/23 06:27:37;;;;;;;;;;;;;;;11.18;70.82;100433.19;4997943;28;20261;-76
2022/12/23 06:30:03;;;;;;;;;;;;;;;11.17;70.91;100432.38;5015090;28;19913;-76
2022/12/23 06:32:28;;;;;;;;;;;;;;;11.18;70.90;100438.59;5014166;28;19913;-76
2022/12/23 06:34:53;;;;;;;;;;;;;;;11.18;70.99;100425.06;4997697;28;19913;-77
2022/12/23 06:37:19;;;;;;;;;;;;;;;11.17;70.82;100432.38;5015381;28;19913;-76
2022/12/23 06:39:44;;;;;;;;;;;;;;;11.18;70.98;100438.59;5015249;28;19916;-77
2022/12/23 06:42:10;;;;;;;;;;;;;;;11.17;71.08;100451.31;5015321;28;20361;-77
2022/12/23 06:44:35;;;;;;;;;;;;;;;11.17;70.96;100451.31;5013725;28;19917;-77
2022/12/23 06:47:00;;;;;;;;;;;;;;;11.17;70.89;100467.53;5013765;28;19945;-78
2022/12/23 06:49:26;;;;;;;;;;;;;;;11.17;70.85;100464.81;4997492;28;19928;-78
2022/12/23 06:51:51;;;;;;;;;;;;;;;11.17;70.99;100472.13;4997351;28;19921;-77
2022/12/23 06:54:16;;;;;;;;;;;;;;;11.16;71.14;100481.28;4997299;28;20316;-78
2022/12/23 06:56:41;;;;;;;;;;;;;;;11.16;71.01;100492.94;5015372;28;19960;-77
2022/12/23 06:59:07;;;;;;;;;;;;;;;11.16;70.94;100494.81;5013938;28;19913;-77
2022/12/23 07:01:32;;;;;;;;;;;;;;;11.16;70.96;100503.75;5015271;28;19973;-77
2022/12/23 07:03:57;;;;;;;;;;;;;;;11.16;71.10;100502.91;5014505;28;20016;-76
2022/12/23 07:06:22;;;;;;;;;;;;;;;11.16;70.92;100500.22;5014010;28;19917;-77
2022/12/23 07:08:49;;;;;;;;;;;;;;;11.15;71.09;100487.78;5013704;28;20364;-77
2022/12/23 07:11:14;;;;;;;;;;;;;;;11.16;70.99;100479.41;5013472;28;19909;-77
2022/12/23 07:13:39;;;;;;;;;;;;;;;11.15;70.99;100476.97;5014374;28;20238;-76
2022/12/23 07:16:06;;;;;;;;;;;;;;;11.16;70.97;100492.94;4997830;28;19919;-77
2022/12/23 07:18:31;;;;;;;;;;;;;;;11.16;70.91;100484.81;5013856;28;19913;-76
2022/12/23 07:20:58;;;;;;;;;;;;;;;11.15;70.85;100475.06;5015057;28;19909;-77
2022/12/23 07:23:24;;;;;;;;;;;;;;;11.16;70.84;100470.47;5014478;28;19909;-77
2022/12/23 07:25:49;;;;;;;;;;;;;;;11.16;71.01;100478.56;5013172;28;19913;-78
2022/12/23 07:28:14;;;;;;;;;;;;;;;11.15;70.70;100475.06;5013561;28;19913;-78
2022/12/23 07:30:39;;;;;;;;;;;;;;;11.15;70.92;100466.94;5013846;28;19956;-77
2022/12/23 07:33:05;;;;;;;;;;;;;;;11.15;70.90;100461.53;5012842;28;19913;-77
2022/12/23 07:35:30;;;;;;;;;;;;;;;11.15;71.00;100469.66;5014359;28;20388;-77
2022/12/23 07:37:55;;;;;;;;;;;;;;;11.16;71.09;100465.06;5012979;28;19910;-77
2022/12/23 07:40:21;;;;;;;;;;;;;;;11.14;70.92;100459.94;5012728;28;19925;-77
2022/12/23 07:42:48;;;;;;;;;;;;;;;11.16;70.83;100470.47;4996558;28;19913;-75
2022/12/23 07:45:14;;;;;;;;;;;;;;;11.15;70.94;100466.94;5012345;28;19921;-77
2022/12/23 07:47:39;;;;;;;;;;;;;;;11.16;70.87;100470.47;4997391;28;19921;-78
2022/12/23 07:50:04;;;;;;;;;;;;;;;11.15;70.99;100461.53;5012796;28;19913;-78
2022/12/23 07:52:30;;;;;;;;;;;;;;;11.15;70.63;100461.53;4996343;28;19949;-77
2022/12/23 07:54:55;;;;;;;;;;;;;;;11.15;71.02;100480.47;5014188;28;19936;-77
2022/12/23 07:57:20;;;;;;;;;;;;;;;11.15;70.84;100472.34;5013447;28;19920;-78
2022/12/23 07:59:45;;;;;;;;;;;;;;;11.16;70.93;100459.66;5013083;28;19963;-78
2022/12/23 08:02:11;;;;;;;;;;;;;;;11.15;70.98;100452.63;5012791;28;20241;-78
2022/12/23 08:04:36;;;;;;;;;;;;;;;11.15;70.91;100445.31;5012779;28;19913;-78
2022/12/23 08:07:01;;;;;;;;;;;;;;;11.16;70.78;100452.38;5013615;28;19968;-77
2022/12/23 08:09:26;;;;;;;;;;;;;;;11.17;70.88;100450.50;4996721;28;20364;-78
2022/12/23 08:11:52;;;;;;;;;;;;;;;11.19;70.70;100453.75;5014198;28;20037;-78
2022/12/23 08:14:17;;;;;;;;;;;;;;;11.17;70.83;100448.59;5012721;28;19920;-76
2022/12/23 08:16:42;;;;;;;;;;;;;;;11.17;70.73;100455.91;5012517;28;19996;-77
2022/12/23 08:19:07;;;;;;;;;;;;;;;11.17;70.77;100455.91;5012520;28;19921;-77
2022/12/23 08:21:33;;;;;;;;;;;;;;;11.17;70.75;100464.81;5012988;28;19917;-76
2022/12/23 08:23:58;;;;;;;;;;;;;;;11.19;70.64;100461.88;5013885;28;19952;-76
2022/12/23 08:26:23;;;;;;;;;;;;;;;11.19;70.75;100464.56;4996743;28;19914;-77
2022/12/23 08:28:52;;;;;;;;;;;;;;;11.18;70.74;100458.31;4996265;28;19921;-78
2022/12/23 08:31:19;;;;;;;;;;;;;;;11.18;70.74;100452.13;5012331;28;19909;-78
2022/12/23 08:33:46;;;;;;;;;;;;;;;11.18;70.80;100452.91;5013702;28;19909;-76
2022/12/23 08:36:16;;;;;;;;;;;;;;;11.19;70.75;100446.47;5013674;28;19915;-77
2022/12/23 08:38:41;;;;;;;;;;;;;;;11.19;70.71;100445.66;5012497;28;19932;-77
2022/12/23 08:41:10;;;;;;;;;;;;;;;11.19;70.68;100429.44;5012128;28;20361;-79
2022/12/23 08:43:36;;;;;;;;;;;;;;;11.19;70.79;100432.94;5013355;28;20305;-76
2022/12/23 08:46:01;;;;;;;;;;;;;;;11.19;70.75;100434.84;5011944;28;19923;-77
2022/12/23 08:48:26;;;;;;;;;;;;;;;11.19;70.70;100432.13;5012543;28;20361;-77
2022/12/23 08:50:51;;;;;;;;;;;;;;;11.19;70.72;100426.72;5012356;28;20358;-77
2022/12/23 08:53:17;;;;;;;;;;;;;;;11.20;70.67;100441.88;5012320;28;19918;-77
2022/12/23 08:55:44;;;;;;;;;;;;;;;11.19;70.75;100416.72;4995563;28;19941;-77
2022/12/23 08:58:10;;;;;;;;;;;;;;;11.19;70.81;100402.41;5012306;28;19917;-78
2022/12/23 09:00:36;;;;;;;;;;;;;;;11.19;70.90;100394.28;5013453;28;19913;-76
2022/12/23 09:03:01;;;;;;;;;;;;;;;11.19;70.73;100381.59;5012654;28;19924;-80
2022/12/23 09:05:26;;;;;;;;;;;;;;;11.19;70.68;100384.28;5012098;28;19952;-78
2022/12/23 09:07:52;;;;;;;;;;;;;;;11.19;70.79;100378.88;5012291;28;20016;-77
2022/12/23 09:10:17;;;;;;;;;;;;;;;11.19;70.66;100373.47;5015985;28;19917;-77
2022/12/23 09:12:43;;;;;;;;;;;;;;;11.19;70.70;100359.94;5016288;28;19917;-75
2022/12/23 09:15:08;;;;;;;;;;;;;;;11.19;70.70;100361.84;5016434;28;20330;-75
2022/12/23 09:17:33;;;;;;;;;;;;;;;11.19;70.71;100359.94;5015326;28;20376;-75
2022/12/23 09:19:59;;;;;;;;;;;;;;;11.20;70.66;100361.56;5015936;28;19917;-76
2022/12/23 09:22:24;;;;;;;;;;;;;;;11.19;70.79;100370.78;5015578;28;19917;-75
2022/12/23 09:24:49;;;;;;;;;;;;;;;11.20;70.47;100360.75;5016527;28;19941;-75
2022/12/23 09:27:14;;;;;;;;;;;;;;;11.19;70.75;100356.44;5015311;28;20014;-75
2022/12/23 09:29:40;;;;;;;;;;;;;;;11.19;70.72;100364.56;5016734;28;19939;-76
2022/12/23 09:32:05;;;;;;;;;;;;;;;11.20;70.54;100361.56;5016226;28;20007;-78
2022/12/23 09:34:30;;;;;;;;;;;;;;;11.20;70.64;100366.97;5016366;28;20356;-75
2022/12/23 09:36:56;;;;;;;;;;;;;;;11.20;70.73;100368.88;4999358;28;19949;-75
2022/12/23 09:39:21;;;;;;;;;;;;;;;11.19;70.79;100351.84;5014922;28;19924;-75
2022/12/23 09:41:47;;;;;;;;;;;;;;;11.19;70.57;100354.53;5016496;28;20373;-75
2022/12/23 09:44:20;;;;;;;;;;;;;;;11.20;70.46;100348.06;5015785;28;19920;-74
2022/12/23 09:46:54;;;;;;;;;;;;;;;11.18;70.66;100342.09;5015394;28;19913;-75
2022/12/23 09:49:21;;;;;;;;;;;;;;;11.18;70.55;100350.19;5015749;28;19913;-75
2022/12/23 09:51:47;;;;;;;;;;;;;;;11.19;70.68;100359.94;5014708;28;20004;-75
2022/12/23 09:54:18;;;;;;;;;;;;;;;11.19;70.60;100367.25;5014764;28;20407;-76
2022/12/23 09:57:04;;;;;;;;;;;;;;;11.19;70.68;100367.25;5015013;28;19917;-76
2022/12/23 09:59:48;;;;;;;;;;;;;;;11.19;70.80;100356.44;5015974;28;19920;-76
2022/12/23 10:02:16;;;;;;;;;;;;;;;11.18;70.65;100342.09;5014066;28;19944;-77
2022/12/23 10:04:45;;;;;;;;;;;;;;;11.17;70.82;100324.25;5014388;28;19914;-77
2022/12/23 10:07:28;;;;;;;;;;;;;;;11.18;70.90;100331.28;5014049;28;19917;-76
2022/12/23 10:09:55;;;;;;;;;;;;;;;11.18;70.68;100327.75;5015392;28;19918;-77
2022/12/23 10:12:38;;;;;;;;;;;;;;;11.18;70.72;100319.66;5015530;28;19957;-76
2022/12/23 10:15:07;;;;;;;;;;;;;;;11.18;70.67;100325.88;5013796;28;19917;-76
2022/12/23 10:17:40;;;;;;;;;;;;;;;11.19;70.56;100310.47;5014045;28;19920;-76
2022/12/23 10:20:08;;;;;;;;;;;;;;;11.18;70.67;100306.13;5015196;28;19920;-77
2022/12/23 10:22:42;;;;;;;;;;;;;;;11.17;70.61;100302.63;5015073;28;19921;-77
2022/12/23 10:25:17;;;;;;;;;;;;;;;11.18;70.61;100289.91;5014891;28;19913;-76
2022/12/23 10:27:42;;;;;;;;;;;;;;;11.18;70.65;100284.50;5013524;28;19959;-76
2022/12/23 10:30:15;;;;;;;;;;;;;;;11.17;70.55;100278.28;5013827;28;19914;-75
2022/12/23 10:32:43;;;;;;;;;;;;;;;11.18;70.59;100273.69;5014864;28;19951;-75
2022/12/23 10:35:29;;;;;;;;;;;;;;;11.18;70.68;100274.50;5015712;28;19968;-76
2022/12/23 10:38:02;;;;;;;;;;;;;;;11.17;70.60;100280.19;4993987;28;20332;-76
2022/12/23 10:40:56;;;;;;;;;;;;;;;11.18;70.53;100266.38;5014600;28;20000;-74
2022/12/23 10:43:28;;;;;;;;;;;;;;;11.18;70.53;100250.16;5006007;28;19995;-76
2022/12/23 10:46:12;;;;;;;;;;;;;;;11.17;70.59;100245.84;5013064;28;19927;-77
2022/12/23 10:48:56;;;;;;;;;;;;;;;11.18;70.59;100241.25;5015255;28;20357;-76
2022/12/23 10:51:26;;;;;;;;;;;;;;;11.17;70.55;100231.53;5013693;28;20012;-76
2022/12/23 10:53:57;;;;;;;;;;;;;;;11.18;70.57;100216.91;5014254;28;19918;-75
2022/12/23 10:56:23;;;;;;;;;;;;;;;11.18;70.51;100223.13;5014248;28;19959;-77
2022/12/23 10:58:50;;;;;;;;;;;;;;;11.17;70.37;100213.41;5013399;28;20007;-77
2022/12/23 11:01:16;;;;;;;;;;;;;;;11.18;70.57;100214.22;5014406;28;19920;-75
2022/12/23 11:04:05;;;;;;;;;;;;;;;11.18;70.72;100212.31;5014452;28;20415;-77
2022/12/23 11:06:31;;;;;;;;;;;;;;;11.18;70.59;100220.44;5008106;28;19952;-74
2022/12/23 11:08:59;;;;;;;;;;;;;;;11.18;70.46;100225.84;5013157;28;19920;-76
2022/12/23 11:11:44;;;;;;;;;;;;;;;11.19;70.65;100226.69;5014595;28;20362;-75
2022/12/23 11:14:28;;;;;;;;;;;;;;;11.19;70.44;100222.09;5013945;28;19921;-76
2022/12/23 11:16:53;;;;;;;;;;;;;;;11.19;70.51;100207.75;5012919;28;19968;-75
2022/12/23 11:19:18;;;;;;;;;;;;;;;11.19;70.57;100194.25;5013182;28;20350;-77
2022/12/23 11:21:59;;;;;;;;;;;;;;;11.18;70.51;100185.28;4996305;28;19917;-76
2022/12/23 11:24:26;;;;;;;;;;;;;;;11.19;70.46;100183.44;5013016;28;20000;-76
2022/12/23 11:26:59;;;;;;;;;;;;;;;11.19;70.56;100183.44;5014021;28;20312;-76
2022/12/23 11:29:44;;;;;;;;;;;;;;;11.20;70.42;100168.81;5012551;28;19963;-75
2022/12/23 11:32:32;;;;;;;;;;;;;;;11.20;70.56;100166.13;5013771;28;19917;-78
2022/12/23 11:34:58;;;;;;;;;;;;;;;11.20;70.57;100163.41;5012373;28;19921;-77
2022/12/23 11:37:26;;;;;;;;;;;;;;;11.19;70.60;100154.50;4996417;28;19925;-74
2022/12/23 11:39:51;;;;;;;;;;;;;;;11.20;70.59;100145.31;5014089;28;20000;-76
2022/12/23 11:42:18;;;;;;;;;;;;;;;11.20;70.57;100139.91;5012926;28;20345;-76
2022/12/23 11:44:46;;;;;;;;;;;;;;;11.20;70.54;100134.50;5014115;28;19917;-75
2022/12/23 11:47:28;;;;;;;;;;;;;;;11.20;70.72;100136.38;5013949;28;19924;-76
2022/12/23 11:50:02;;;;;;;;;;;;;;;11.20;70.72;100139.91;5012584;28;19975;-75
2022/12/23 11:52:31;;;;;;;;;;;;;;;11.20;70.70;100126.38;5012642;28;19953;-75
2022/12/23 11:54:58;;;;;;;;;;;;;;;11.19;70.59;100108.53;5013800;28;19956;-77
2022/12/23 11:57:26;;;;;;;;;;;;;;;11.19;70.67;100086.91;5012483;28;19917;-77
2022/12/23 11:59:56;;;;;;;;;;;;;;;11.20;70.62;100071.50;5012709;28;19928;-75
2022/12/23 12:02:21;;;;;;;;;;;;;;;11.19;70.66;100062.59;5012373;28;19914;-76
2022/12/23 12:04:59;;;;;;;;;;;;;;;11.18;70.63;100055.53;5012687;28;19964;-76
2022/12/23 12:07:25;;;;;;;;;;;;;;;11.19;70.80;100056.38;5014270;28;20296;-77
2022/12/23 12:09:50;;;;;;;;;;;;;;;11.18;70.68;100060.94;5013735;28;19913;-76
2022/12/23 12:12:18;;;;;;;;;;;;;;;11.18;70.67;100069.06;5012445;28;19949;-76
2022/12/23 12:14:45;;;;;;;;;;;;;;;11.19;70.75;100069.88;5013204;28;20349;-75
2022/12/23 12:17:10;;;;;;;;;;;;;;;11.17;70.81;100074.75;5013574;28;19920;-75
2022/12/23 12:19:47;;;;;;;;;;;;;;;11.18;70.91;100071.75;5012239;28;19913;-75
2022/12/23 12:22:17;;;;;;;;;;;;;;;11.18;70.71;100044.72;5012547;28;19913;-75
2022/12/23 12:24:47;;;;;;;;;;;;;;;11.18;70.64;100025.00;5012035;28;20361;-75
2022/12/23 12:27:13;;;;;;;;;;;;;;;11.17;70.74;100018.78;5012300;28;20008;-75
2022/12/23 12:29:48;;;;;;;;;;;;;;;11.17;70.81;100012.56;5013454;28;19961;-75
2022/12/23 12:32:36;;;;;;;;;;;;;;;11.17;70.73;100009.88;5013410;28;19956;-74
2022/12/23 12:35:04;;;;;;;;;;;;;;;11.17;70.63;100007.16;5007595;28;19920;-75
2022/12/23 12:37:48;;;;;;;;;;;;;;;11.17;70.91;99993.66;5013601;28;19941;-74
2022/12/23 12:40:21;;;;;;;;;;;;;;;11.16;70.77;99973.91;5013179;28;20411;-74
2022/12/23 12:43:06;;;;;;;;;;;;;;;11.15;70.85;99964.16;5012500;28;19921;-74
2022/12/23 12:45:47;;;;;;;;;;;;;;;11.16;70.84;99948.75;5009578;28;20000;-75
2022/12/23 12:48:12;;;;;;;;;;;;;;;11.15;70.76;99958.75;5032762;28;19917;-73
2022/12/23 12:50:47;;;;;;;;;;;;;;;11.15;70.65;99944.44;5017023;28;19919;-73
2022/12/23 12:53:19;;;;;;;;;;;;;;;11.16;70.86;99943.34;5017521;28;19928;-73
2022/12/23 12:55:49;;;;;;;;;;;;;;;11.16;70.98;99916.31;5016903;28;19959;-73
2022/12/23 12:58:17;;;;;;;;;;;;;;;11.15;70.83;99906.59;5016972;28;19960;-72
2022/12/23 13:00:51;;;;;;;;;;;;;;;11.15;70.86;99902.00;5016846;28;19913;-74
2022/12/23 13:03:46;;;;;;;;;;;;;;;11.15;70.93;99907.41;5015823;28;19963;-74
2022/12/23 13:06:29;;;;;;;;;;;;;;;11.15;70.69;99901.19;5015859;28;19918;-74
2022/12/23 13:08:54;;;;;;;;;;;;;;;11.15;70.94;99890.38;5015443;28;20361;-74
2022/12/23 13:11:23;;;;;;;;;;;;;;;11.15;70.92;99868.75;5016707;28;19920;-74
2022/12/23 13:14:03;;;;;;;;;;;;;;;11.15;70.83;99849.84;5015120;28;20004;-73